Meiyo — JNQN — position and weather

sailwx.info

Track history (hours):
 
Tides and Currents Weather Stations Pressure Air Temp Water Temp Dewpoint Dewpoint Depression Visibility Wind Speed Wind Dir Waves Ship Positions

Oceanographic research ship Meiyo (Japan)

Detailed information on ship capabilities available from University of Delaware's Ocean Information Center.

Last reported at 2018-Feb-16 04:34 UTC. Time now 2018-Feb-23 14:22 UTC.
Position N 32°26' E 132°31'.

Length 60 m; draft 3.5 m.

Type: Other ship. MMSI: 431100381.

Date/timePositionNaut miles runAvg speedWind from/ knotsBaromVisibWave heightAir tempDewpointWater temp
2018-Feb-16 04:34N 32°26' E 132°31'110.7
2018-Feb-16 04:30N 32°26' E 132°32'41 3.6
2018-Feb-15 17:15N 32°36' E 133°19'  
2018-Feb-13 04:39N 34°36' E 137°48'1 6.6
2018-Feb-13 04:29N 34°36' E 137°49'3 6.5
2018-Feb-13 04:00N 34°36' E 137°53'12 4.6
2018-Feb-13 01:16N 34°34' E 138°08'1 4.3
2018-Feb-13 00:57N 34°34' E 138°10'3 5.5
2018-Feb-13 00:24N 34°34' E 138°13'7 6.5
2018-Feb-12 23:16N 34°31' E 138°22'2 6.0
2018-Feb-12 22:58N 34°31' E 138°24'3 6.2
2018-Feb-12 22:26N 34°31' E 138°28'3 6.2
2018-Feb-12 22:00N 34°31' E 138°31'4 5.7
2018-Feb-12 21:21N 34°31' E 138°35'2 5.6
2018-Feb-12 21:00N 34°31' E 138°38'5 5.5
2018-Feb-12 20:00N 34°31' E 138°44'3 5.8
2018-Feb-12 19:24N 34°31' E 138°49'2 4.4
2018-Feb-12 18:57N 34°31' E 138°51'2 4.3
2018-Feb-12 18:30N 34°32' E 138°53'2 4.8
2018-Feb-12 18:00N 34°32' E 138°56'2 4.7
2018-Feb-12 17:30N 34°32' E 138°59'4 6.7
2018-Feb-12 16:55N 34°36' E 139°01'3 7.2
2018-Feb-12 16:28N 34°39' E 139°03'4 6.1
2018-Feb-12 15:53N 34°42' E 139°05'7 6.8
2018-Feb-12 14:53N 34°48' E 139°08'10 6.1
2018-Feb-12 13:19N 34°57' E 139°13'2 5.5
2018-Feb-12 13:00N 34°58' E 139°14'3 6.6
2018-Feb-12 12:31N 35°01' E 139°17'3 5.8
2018-Feb-12 12:00N 35°03' E 139°20'2 4.6
2018-Feb-12 11:30N 35°04' E 139°22'2 3.1
2018-Feb-12 11:00N 35°05' E 139°24'2 3.8
2018-Feb-12 10:30N 35°06' E 139°26'3 6.3
2018-Feb-12 10:01N 35°06' E 139°29'4 6.9
2018-Feb-12 09:30N 35°06' E 139°34'3 5.7
2018-Feb-12 09:01N 35°06' E 139°37'3 5.2
2018-Feb-12 08:30N 35°07' E 139°40'2 4.4
2018-Feb-12 07:56N 35°07' E 139°43'3 6.8
2018-Feb-12 07:31N 35°09' E 139°45'611.9
2018-Feb-12 07:00N 35°15' E 139°46'612.4
2018-Feb-12 06:31N 35°21' E 139°42'611.5
2018-Feb-12 06:00N 35°26' E 139°45'612.2
2018-Feb-12 05:31N 35°30' E 139°51'611.3
2018-Feb-12 05:00N 35°35' E 139°48'3 6.9
2018-Feb-12 04:30N 35°38' E 139°47'  
Track history (hours):
 
Tides and Currents Weather Stations Pressure Air Temp Water Temp Dewpoint Dewpoint Depression Visibility Wind Speed Wind Dir Waves Ship Positions

Oceanographic research ship Meiyo (Japan)

Detailed information on ship capabilities available from University of Delaware's Ocean Information Center.

Last reported at 2018-Feb-16 04:34 UTC. Time now 2018-Feb-23 14:22 UTC.
Position N 32°26' E 132°31'.

Length 60 m; draft 3.5 m.

Type: Other ship. MMSI: 431100381.

Date/timePositionNaut miles runAvg speedWind from/ knotsBaromVisibWave heightAir tempDewpointWater temp
2018-Feb-16 04:34N 32°26' E 132°31'110.7
2018-Feb-16 04:30N 32°26' E 132°32'41 3.6
2018-Feb-15 17:15N 32°36' E 133°19'  
2018-Feb-13 04:39N 34°36' E 137°48'1 6.6
2018-Feb-13 04:29N 34°36' E 137°49'3 6.5
2018-Feb-13 04:00N 34°36' E 137°53'12 4.6
2018-Feb-13 01:16N 34°34' E 138°08'1 4.3
2018-Feb-13 00:57N 34°34' E 138°10'3 5.5
2018-Feb-13 00:24N 34°34' E 138°13'7 6.5
2018-Feb-12 23:16N 34°31' E 138°22'2 6.0
2018-Feb-12 22:58N 34°31' E 138°24'3 6.2
2018-Feb-12 22:26N 34°31' E 138°28'3 6.2
2018-Feb-12 22:00N 34°31' E 138°31'4 5.7
2018-Feb-12 21:21N 34°31' E 138°35'2 5.6
2018-Feb-12 21:00N 34°31' E 138°38'5 5.5
2018-Feb-12 20:00N 34°31' E 138°44'3 5.8
2018-Feb-12 19:24N 34°31' E 138°49'2 4.4
2018-Feb-12 18:57N 34°31' E 138°51'2 4.3
2018-Feb-12 18:30N 34°32' E 138°53'2 4.8
2018-Feb-12 18:00N 34°32' E 138°56'2 4.7
2018-Feb-12 17:30N 34°32' E 138°59'4 6.7
2018-Feb-12 16:55N 34°36' E 139°01'3 7.2
2018-Feb-12 16:28N 34°39' E 139°03'4 6.1
2018-Feb-12 15:53N 34°42' E 139°05'7 6.8
2018-Feb-12 14:53N 34°48' E 139°08'10 6.1
2018-Feb-12 13:19N 34°57' E 139°13'2 5.5
2018-Feb-12 13:00N 34°58' E 139°14'3 6.6
2018-Feb-12 12:31N 35°01' E 139°17'3 5.8
2018-Feb-12 12:00N 35°03' E 139°20'2 4.6
2018-Feb-12 11:30N 35°04' E 139°22'2 3.1
2018-Feb-12 11:00N 35°05' E 139°24'2 3.8
2018-Feb-12 10:30N 35°06' E 139°26'3 6.3
2018-Feb-12 10:01N 35°06' E 139°29'4 6.9
2018-Feb-12 09:30N 35°06' E 139°34'3 5.7
2018-Feb-12 09:01N 35°06' E 139°37'3 5.2
2018-Feb-12 08:30N 35°07' E 139°40'2 4.4
2018-Feb-12 07:56N 35°07' E 139°43'3 6.8
2018-Feb-12 07:31N 35°09' E 139°45'611.9
2018-Feb-12 07:00N 35°15' E 139°46'612.4
2018-Feb-12 06:31N 35°21' E 139°42'611.5
2018-Feb-12 06:00N 35°26' E 139°45'612.2
2018-Feb-12 05:31N 35°30' E 139°51'611.3
2018-Feb-12 05:00N 35°35' E 139°48'3 6.9
2018-Feb-12 04:30N 35°38' E 139°47'  

Dump ship's entire track history